Time;durP1;ratioP1;P1;durP2;ratioP2;P2;SDS_P1;SDS_P2;PMS_P1;PMS_P2;Temp;Humidity;BMP_temperature;BMP_pressure;BME280_temperature;BME280_humidity;BME280_pressure;Samples;Min_cycle;Max_cycle;Signal;HPM_P1;HPM_P2
2021/03/12 00:02:17;;;;;;;15.35;3.00;;;8.00;93.70;;;;;;5065111;28;20052;-38
2021/03/12 00:04:42;;;;;;;11.55;2.72;;;8.00;93.70;;;;;;5066019;28;20048;-39
2021/03/12 00:07:08;;;;;;;13.52;2.92;;;8.00;93.60;;;;;;5065784;28;20046;-38
2021/03/12 00:09:33;;;;;;;17.08;3.72;;;8.00;93.60;;;;;;5065777;28;20020;-38
2021/03/12 00:11:59;;;;;;;16.08;3.03;;;8.00;93.30;;;;;;5065866;28;20033;-38
2021/03/12 00:14:24;;;;;;;12.68;2.33;;;8.00;93.20;;;;;;5066120;28;20056;-38
2021/03/12 00:16:56;;;;;;;11.38;2.33;;;8.00;93.30;;;;;;5065287;28;20047;-39
2021/03/12 00:19:22;;;;;;;11.73;2.30;;;8.00;93.20;;;;;;5065733;28;20025;-39
2021/03/12 00:21:47;;;;;;;14.52;3.67;;;8.00;93.10;;;;;;5065689;28;20039;-39
2021/03/12 00:24:13;;;;;;;17.55;3.70;;;8.00;92.90;;;;;;5065785;28;20523;-37
2021/03/12 00:26:41;;;;;;;9.88;2.60;;;8.00;92.90;;;;;;5065556;28;20025;-38
2021/03/12 00:29:07;;;;;;;14.60;2.78;;;8.00;92.90;;;;;;5054668;28;20094;-41
2021/03/12 00:31:32;;;;;;;8.30;2.50;;;8.00;92.90;;;;;;5065263;28;20020;-39
2021/03/12 00:33:58;;;;;;;10.82;2.20;;;8.00;92.80;;;;;;5065725;28;20021;-41
2021/03/12 00:36:24;;;;;;;9.75;2.83;;;8.00;92.70;;;;;;5065180;28;20097;-38
2021/03/12 00:38:49;;;;;;;9.50;2.50;;;8.00;92.70;;;;;;5064006;28;20033;-38
2021/03/12 00:41:17;;;;;;;10.88;2.95;;;8.00;92.60;;;;;;5065578;28;20036;-38
2021/03/12 00:43:46;;;;;;;9.75;2.25;;;8.00;92.50;;;;;;5065207;28;20029;-38
2021/03/12 00:46:12;;;;;;;13.90;2.85;;;8.00;92.40;;;;;;5065067;28;20501;-38
2021/03/12 00:48:38;;;;;;;10.45;2.22;;;7.90;92.40;;;;;;5065315;28;20483;-36
2021/03/12 00:51:05;;;;;;;13.57;2.35;;;8.00;92.50;;;;;;5065222;28;20025;-36
2021/03/12 00:53:31;;;;;;;11.27;2.10;;;7.90;92.40;;;;;;5064995;28;20025;-38
2021/03/12 00:55:56;;;;;;;11.25;2.60;;;7.90;92.40;;;;;;5065430;28;20021;-40
2021/03/12 00:58:24;;;;;;;12.35;2.58;;;7.90;92.40;;;;;;5064106;28;20206;-39
2021/03/12 01:00:50;;;;;;;9.10;2.42;;;7.90;92.40;;;;;;5064815;28;20188;-38
2021/03/12 01:03:16;;;;;;;10.65;2.40;;;7.90;92.40;;;;;;5064700;28;20817;-38
2021/03/12 01:05:42;;;;;;;9.85;2.53;;;7.90;92.40;;;;;;5065055;28;20112;-39
2021/03/12 01:08:09;;;;;;;15.07;2.60;;;7.90;92.40;;;;;;5064962;28;20476;-39
2021/03/12 01:10:36;;;;;;;9.70;2.70;;;7.90;92.30;;;;;;5064832;28;20027;-39
2021/03/12 01:13:02;;;;;;;9.70;2.33;;;7.90;92.30;;;;;;5065006;28;20065;-40
2021/03/12 01:15:28;;;;;;;8.13;2.38;;;7.90;92.40;;;;;;5065071;28;20024;-39
2021/03/12 01:17:55;;;;;;;11.05;2.20;;;7.90;92.40;;;;;;5064810;28;20017;-39
2021/03/12 01:20:29;;;;;;;8.35;2.30;;;7.90;92.40;;;;;;5064262;28;20134;-38
2021/03/12 01:22:59;;;;;;;11.75;2.50;;;7.80;92.40;;;;;;5064957;28;20050;-37
2021/03/12 01:25:30;;;;;;;10.23;2.60;;;7.80;92.30;;;;;;5063948;28;20079;-39
2021/03/12 01:27:56;;;;;;;8.90;2.30;;;7.80;92.40;;;;;;5064690;28;20071;-36
2021/03/12 01:30:26;;;;;;;14.05;2.85;;;7.80;92.40;;;;;;5064483;28;20028;-38
2021/03/12 01:32:52;;;;;;;9.63;2.60;;;7.80;92.40;;;;;;5064901;28;20035;-39
2021/03/12 01:35:18;;;;;;;10.90;2.72;;;7.80;92.40;;;;;;5063912;28;20135;-39
2021/03/12 01:37:45;;;;;;;9.32;2.85;;;7.80;92.50;;;;;;5065065;28;20050;-38
2021/03/12 01:40:16;;;;;;;12.40;3.42;;;7.80;92.30;;;;;;5064335;28;20071;-39
2021/03/12 01:42:42;;;;;;;15.63;3.30;;;7.80;92.40;;;;;;5064199;28;20488;-40
2021/03/12 01:45:12;;;;;;;10.75;2.55;;;7.80;92.30;;;;;;5064436;28;20059;-42
2021/03/12 01:47:37;;;;;;;15.40;3.00;;;7.80;92.30;;;;;;5064064;28;20036;-39
2021/03/12 01:50:05;;;;;;;13.95;2.97;;;7.80;92.20;;;;;;5064416;28;20125;-38
2021/03/12 01:52:31;;;;;;;12.90;3.15;;;7.70;92.30;;;;;;5064483;28;20742;-38
2021/03/12 01:54:56;;;;;;;14.25;3.53;;;7.70;92.20;;;;;;5063737;28;20020;-38
2021/03/12 01:57:22;;;;;;;10.75;2.83;;;7.70;92.30;;;;;;5064575;28;20040;-37
2021/03/12 01:59:48;;;;;;;9.75;2.88;;;7.70;92.20;;;;;;5064606;28;20705;-38
2021/03/12 02:02:13;;;;;;;11.48;3.05;;;7.70;92.20;;;;;;5063491;28;20497;-40
2021/03/12 02:04:39;;;;;;;13.63;3.25;;;7.70;92.20;;;;;;5064201;28;20081;-38
2021/03/12 02:07:05;;;;;;;15.13;3.17;;;7.70;92.20;;;;;;5067128;28;20032;-38
2021/03/12 02:09:30;;;;;;;12.30;3.00;;;7.70;92.10;;;;;;5070591;28;20028;-38
2021/03/12 02:12:14;;;;;;;15.43;3.38;;;7.60;92.20;;;;;;5071151;28;20466;-39
2021/03/12 02:14:47;;;;;;;12.38;3.33;;;7.70;92.30;;;;;;5071019;28;20139;-40
2021/03/12 02:17:21;;;;;;;11.85;2.70;;;7.60;92.30;;;;;;5070257;28;20359;-38
2021/03/12 02:20:13;;;;;;;9.50;2.53;;;7.60;92.40;;;;;;5070622;28;20040;-39
2021/03/12 02:22:44;;;;;;;15.77;3.03;;;7.60;92.40;;;;;;5068452;28;20029;-38
2021/03/12 02:25:15;;;;;;;15.35;3.35;;;7.60;92.70;;;;;;5070575;28;20135;-38
2021/03/12 02:27:43;;;;;;;14.55;2.97;;;7.60;92.50;;;;;;5067349;28;20051;-39
2021/03/12 02:30:09;;;;;;;9.50;3.58;;;7.60;92.50;;;;;;5070270;28;20028;-39
2021/03/12 02:32:39;;;;;;;11.43;2.92;;;7.60;92.50;;;;;;5070109;28;20021;-39
2021/03/12 02:35:11;;;;;;;10.07;2.70;;;7.60;92.50;;;;;;5070383;28;20054;-39
2021/03/12 02:37:38;;;;;;;15.60;2.90;;;7.60;92.50;;;;;;5070219;28;20024;-36
2021/03/12 02:40:06;;;;;;;13.07;2.97;;;7.60;92.50;;;;;;5070414;28;20040;-38
2021/03/12 02:42:33;;;;;;;12.60;3.08;;;7.60;92.40;;;;;;5070207;28;20111;-34
2021/03/12 02:45:01;;;;;;;13.02;2.92;;;7.60;92.50;;;;;;5070126;28;20032;-35
2021/03/12 02:47:30;;;;;;;10.95;2.63;;;7.50;92.40;;;;;;5069787;28;20449;-38
2021/03/12 02:49:56;;;;;;;15.13;3.28;;;7.50;92.50;;;;;;5070579;28;20036;-41
2021/03/12 02:52:24;;;;;;;12.65;3.15;;;7.50;92.50;;;;;;5070109;28;20027;-36
2021/03/12 02:54:50;;;;;;;13.25;2.80;;;7.50;92.60;;;;;;5070144;28;20543;-41
2021/03/12 02:57:19;;;;;;;11.60;2.83;;;7.40;92.60;;;;;;5070135;28;20056;-42
2021/03/12 02:59:47;;;;;;;13.85;2.58;;;7.40;92.50;;;;;;5069768;28;20063;-38
2021/03/12 03:02:13;;;;;;;10.70;2.58;;;7.40;92.50;;;;;;5069643;28;20092;-39
2021/03/12 03:04:40;;;;;;;12.07;2.35;;;7.40;92.60;;;;;;5070162;28;20391;-36
2021/03/12 03:07:10;;;;;;;9.55;2.50;;;7.40;92.50;;;;;;5069849;28;20033;-39
2021/03/12 03:09:38;;;;;;;10.50;2.78;;;7.50;92.40;;;;;;5070229;28;20024;-38
2021/03/12 03:12:05;;;;;;;12.38;2.58;;;7.40;92.40;;;;;;5069475;28;20036;-39
2021/03/12 03:14:31;;;;;;;13.07;2.30;;;7.40;92.40;;;;;;5069846;28;20530;-41
2021/03/12 03:17:04;;;;;;;17.65;2.75;;;7.40;92.30;;;;;;5070511;28;20025;-39
2021/03/12 03:19:31;;;;;;;;;;;7.40;92.40;;;;;;5067108;28;20028;-39
2021/03/12 03:21:58;;;;;;;12.68;2.58;;;7.40;92.30;;;;;;5067481;28;19931;-39
2021/03/12 03:24:24;;;;;;;13.20;2.78;;;7.40;92.30;;;;;;5066876;28;20035;-38
2021/03/12 03:26:50;;;;;;;16.10;3.72;;;7.40;92.30;;;;;;5066468;28;20028;-38
2021/03/12 03:29:15;;;;;;;9.57;2.47;;;7.40;92.40;;;;;;5066289;28;20039;-36
2021/03/12 03:31:41;;;;;;;14.77;2.67;;;7.30;92.40;;;;;;5066975;28;20393;-38
2021/03/12 03:34:10;;;;;;;10.27;2.53;;;7.30;92.40;;;;;;5066342;28;20039;-37
2021/03/12 03:36:36;;;;;;;11.88;2.47;;;7.30;92.50;;;;;;5066694;28;20119;-36
2021/03/12 03:39:02;;;;;;;15.93;2.85;;;7.30;92.40;;;;;;5066562;28;20103;-39
2021/03/12 03:41:30;;;;;;;11.65;2.78;;;7.30;92.40;;;;;;5066338;28;20032;-39
2021/03/12 03:43:56;;;;;;;11.82;2.60;;;7.30;92.40;;;;;;5066947;28;20060;-39
2021/03/12 03:46:23;;;;;;;12.75;2.80;;;7.30;92.40;;;;;;5066288;28;20469;-41
2021/03/12 03:48:50;;;;;;;12.10;2.50;;;7.30;92.30;;;;;;5065903;28;20436;-36
2021/03/12 03:51:18;;;;;;;13.10;2.95;;;7.30;92.40;;;;;;5065731;28;20037;-38
2021/03/12 03:53:44;;;;;;;11.05;2.40;;;7.20;92.40;;;;;;5065933;28;20028;-36
2021/03/12 03:56:15;;;;;;;15.50;2.55;;;7.20;92.50;;;;;;5065797;28;20028;-38
2021/03/12 03:58:42;;;;;;;12.25;2.40;;;7.20;92.50;;;;;;5066094;28;20074;-39
2021/03/12 04:01:09;;;;;;;11.00;2.60;;;7.20;92.50;;;;;;5065552;28;20040;-39
2021/03/12 04:03:37;;;;;;;9.10;2.10;;;7.20;92.60;;;;;;5066167;28;20028;-38
2021/03/12 04:06:04;;;;;;;13.05;2.30;;;7.20;92.70;;;;;;5065811;28;20047;-38
2021/03/12 04:08:32;;;;;;;13.63;2.58;;;7.10;92.70;;;;;;5065443;28;20031;-39
2021/03/12 04:10:59;;;;;;;10.40;2.20;;;7.10;92.80;;;;;;5065672;28;20097;-39
2021/03/12 04:13:26;;;;;;;10.85;2.10;;;7.10;93.00;;;;;;5066353;28;20070;-39
2021/03/12 04:15:52;;;;;;;12.57;2.70;;;7.00;93.00;;;;;;5065311;28;20034;-38
2021/03/12 04:18:18;;;;;;;6.28;2.20;;;7.00;93.10;;;;;;5065532;28;20089;-38
2021/03/12 04:20:44;;;;;;;11.10;2.75;;;6.90;93.20;;;;;;5065799;28;20024;-38
2021/03/12 04:23:10;;;;;;;8.10;2.17;;;6.90;93.30;;;;;;5065144;28;20031;-39
2021/03/12 04:25:36;;;;;;;10.57;2.47;;;6.80;93.20;;;;;;5065151;28;20059;-35
2021/03/12 04:28:02;;;;;;;10.15;2.70;;;6.80;93.40;;;;;;5065764;28;20033;-37
2021/03/12 04:30:29;;;;;;;11.52;2.25;;;6.70;93.40;;;;;;5064843;28;20090;-38
2021/03/12 04:32:55;;;;;;;12.35;3.10;;;6.60;93.50;;;;;;5065766;28;20140;-39
2021/03/12 04:35:21;;;;;;;11.15;2.63;;;6.60;93.60;;;;;;5065464;28;20020;-38
2021/03/12 04:37:47;;;;;;;19.27;2.90;;;6.50;93.80;;;;;;5064870;28;20046;-34
2021/03/12 04:40:13;;;;;;;11.48;2.47;;;6.40;93.80;;;;;;5064750;28;20074;-38
2021/03/12 04:42:42;;;;;;;7.45;2.33;;;6.30;94.00;;;;;;5065598;28;20119;-38
2021/03/12 04:45:09;;;;;;;10.50;3.08;;;6.30;94.00;;;;;;5064761;28;20383;-39
2021/03/12 04:47:35;;;;;;;17.08;3.45;;;6.20;94.10;;;;;;5065292;28;20500;-42
2021/03/12 04:50:06;;;;;;;6.18;1.88;;;6.20;94.10;;;;;;5065366;28;20029;-39
2021/03/12 04:52:31;;;;;;;10.20;2.15;;;6.10;94.00;;;;;;5064395;28;20502;-37
2021/03/12 04:54:58;;;;;;;8.95;2.20;;;6.10;94.20;;;;;;5065204;28;20104;-39
2021/03/12 04:57:27;;;;;;;5.43;2.17;;;6.10;94.30;;;;;;5064516;28;20055;-38
2021/03/12 04:59:56;;;;;;;9.68;2.30;;;6.00;94.30;;;;;;5065093;28;20044;-39
2021/03/12 05:02:23;;;;;;;12.90;2.30;;;6.00;94.40;;;;;;5064409;28;20087;-38
2021/03/12 05:04:50;;;;;;;11.93;2.28;;;6.00;94.50;;;;;;5064679;28;20178;-36
2021/03/12 05:07:19;;;;;;;11.48;2.38;;;5.90;94.40;;;;;;5064756;28;20059;-38
2021/03/12 05:09:45;;;;;;;12.45;2.53;;;6.00;94.50;;;;;;5045111;28;20032;-39
2021/03/12 05:12:13;;;;;;;8.48;2.10;;;5.90;94.50;;;;;;5058437;28;20021;-37
2021/03/12 05:14:39;;;;;;;15.02;2.90;;;5.90;94.50;;;;;;5064727;28;20070;-35
2021/03/12 05:17:05;;;;;;;11.90;2.13;;;5.90;94.60;;;;;;5064325;28;20024;-38
2021/03/12 05:19:30;;;;;;;10.80;2.45;;;5.80;94.60;;;;;;5063656;28;20040;-37
2021/03/12 05:22:00;;;;;;;9.98;2.63;;;5.80;94.80;;;;;;5064649;28;20108;-35
2021/03/12 05:24:26;;;;;;;7.70;2.20;;;5.80;94.80;;;;;;5064493;28;20191;-38
2021/03/12 05:26:52;;;;;;;10.80;2.35;;;5.80;94.80;;;;;;5063881;28;20195;-39
2021/03/12 05:29:18;;;;;;;9.48;1.88;;;5.80;94.80;;;;;;5064611;28;20032;-37
2021/03/12 05:31:46;;;;;;;12.25;2.67;;;5.70;94.80;;;;;;5063839;28;20415;-39
2021/03/12 05:34:17;;;;;;;9.65;2.40;;;5.70;94.80;;;;;;5063660;28;20021;-38
2021/03/12 05:36:43;;;;;;;13.10;3.22;;;5.70;94.90;;;;;;5064480;28;20062;-38
2021/03/12 05:39:08;;;;;;;7.60;2.30;;;5.60;94.90;;;;;;5064132;28;20032;-39
2021/03/12 05:41:38;;;;;;;8.35;2.60;;;5.60;94.90;;;;;;5063281;28;20848;-37
2021/03/12 05:44:06;;;;;;;15.27;2.55;;;5.60;95.00;;;;;;5064482;28;20043;-40
2021/03/12 05:46:33;;;;;;;8.65;2.25;;;5.60;95.10;;;;;;5064407;28;20028;-37
2021/03/12 05:48:59;;;;;;;10.18;2.70;;;5.60;95.10;;;;;;5064248;28;20032;-44
2021/03/12 05:51:25;;;;;;;10.15;2.53;;;5.50;95.10;;;;;;5064480;28;20029;-39
2021/03/12 05:53:51;;;;;;;15.02;3.08;;;5.50;95.10;;;;;;5063894;28;20565;-38
2021/03/12 05:56:17;;;;;;;12.32;2.97;;;5.50;95.20;;;;;;5064182;28;20103;-36
2021/03/12 05:58:43;;;;;;;15.63;3.38;;;5.50;95.30;;;;;;5064122;28;20543;-37
2021/03/12 06:01:09;;;;;;;9.95;2.85;;;5.50;95.30;;;;;;5063274;28;20048;-35
2021/03/12 06:03:34;;;;;;;14.38;2.83;;;5.50;95.30;;;;;;5063989;28;20062;-38
2021/03/12 06:06:00;;;;;;;11.85;3.13;;;5.50;95.30;;;;;;5064544;28;20027;-39
2021/03/12 06:08:25;;;;;;;7.72;2.63;;;5.40;95.30;;;;;;5063439;28;20048;-36
2021/03/12 06:10:51;;;;;;;10.00;2.58;;;5.50;95.30;;;;;;5064327;28;20043;-38
2021/03/12 06:13:16;;;;;;;8.80;2.63;;;5.50;95.30;;;;;;5063621;28;20089;-37
2021/03/12 06:15:45;;;;;;;10.45;3.08;;;5.50;95.20;;;;;;5063660;28;20039;-39
2021/03/12 06:18:24;;;;;;;14.07;2.67;;;5.50;95.20;;;;;;5064101;28;20167;-38
2021/03/12 06:20:53;;;;;;;10.95;3.30;;;5.50;95.20;;;;;;5053291;28;20373;-37
2021/03/12 06:23:42;;;;;;;12.20;2.70;;;5.50;95.20;;;;;;5063044;28;20413;-43
2021/03/12 06:26:08;;;;;;;18.20;3.40;;;5.60;95.20;;;;;;5054144;28;20600;-39
2021/03/12 06:28:34;;;;;;;7.82;2.53;;;5.50;95.10;;;;;;5063516;28;20066;-39
2021/03/12 06:30:59;;;;;;;13.57;3.17;;;5.60;95.10;;;;;;5063647;28;20116;-39
2021/03/12 06:33:35;;;;;;;12.52;3.28;;;5.60;95.00;;;;;;5063954;28;20067;-37
2021/03/12 06:36:03;;;;;;;13.70;3.08;;;5.60;95.00;;;;;;5061560;28;20035;-36
2021/03/12 06:38:29;;;;;;;12.15;3.38;;;5.60;95.00;;;;;;5064188;28;20048;-38
2021/03/12 06:40:55;;;;;;;11.77;2.70;;;5.60;94.90;;;;;;5063938;28;20071;-38
2021/03/12 06:43:22;;;;;;;10.05;3.00;;;5.60;94.90;;;;;;5063694;28;20056;-39
2021/03/12 06:45:51;;;;;;;12.25;4.15;;;5.60;94.90;;;;;;5063483;28;20033;-38
2021/03/12 06:48:21;;;;;;;15.95;3.28;;;5.60;94.80;;;;;;5064088;28;20410;-38
2021/03/12 06:50:51;;;;;;;15.73;3.38;;;5.70;94.90;;;;;;5063419;28;20021;-38
2021/03/12 06:53:18;;;;;;;14.93;3.22;;;5.70;94.80;;;;;;5064916;28;20028;-37
2021/03/12 06:55:44;;;;;;;12.90;3.53;;;5.70;94.80;;;;;;5067190;28;20090;-37
2021/03/12 06:58:10;;;;;;;13.63;3.25;;;5.70;94.70;;;;;;5067272;28;20085;-38
2021/03/12 07:00:35;;;;;;;13.77;3.10;;;5.70;94.70;;;;;;5067007;28;20044;-38
2021/03/12 07:03:15;;;;;;;13.40;3.45;;;5.70;94.70;;;;;;5067055;28;20056;-36
2021/03/12 07:05:54;;;;;;;9.15;3.33;;;5.70;94.70;;;;;;5066654;28;20066;-37
2021/03/12 07:08:27;;;;;;;12.10;3.03;;;5.70;94.60;;;;;;5067055;28;20520;-39
2021/03/12 07:10:53;;;;;;;13.77;3.63;;;5.80;94.70;;;;;;5066986;28;20384;-38
2021/03/12 07:13:19;;;;;;;14.73;3.65;;;5.80;94.70;;;;;;5066842;28;20024;-36
2021/03/12 07:15:48;;;;;;;13.52;3.30;;;5.80;94.60;;;;;;5067239;28;20626;-39
2021/03/12 07:18:13;;;;;;;13.82;3.75;;;5.80;94.60;;;;;;5062992;28;20107;-36
2021/03/12 07:20:39;;;;;;;19.73;4.18;;;5.90;94.60;;;;;;5064775;28;20677;-39
2021/03/12 07:23:06;;;;;;;14.60;3.70;;;5.90;94.60;;;;;;5066187;28;20028;-37
2021/03/12 07:25:34;;;;;;;12.55;3.55;;;5.90;94.60;;;;;;5065114;28;20151;-37
2021/03/12 07:28:02;;;;;;;10.13;2.67;;;6.00;94.40;;;;;;5064303;28;20021;-36
2021/03/12 07:30:29;;;;;;;13.50;2.90;;;6.00;94.30;;;;;;5065631;28;20573;-37
2021/03/12 07:33:01;;;;;;;12.50;3.25;;;6.10;94.30;;;;;;5066026;28;20024;-38
2021/03/12 07:35:27;;;;;;;15.13;3.17;;;6.10;94.30;;;;;;5066388;28;20032;-37
2021/03/12 07:37:53;;;;;;;17.63;3.42;;;6.20;94.20;;;;;;5065996;28;20021;-37
2021/03/12 07:40:20;;;;;;;13.65;3.42;;;6.20;94.20;;;;;;5066062;28;20171;-38
2021/03/12 07:42:46;;;;;;;13.38;3.63;;;6.20;94.20;;;;;;5065593;28;20054;-38
2021/03/12 07:45:13;;;;;;;18.65;3.42;;;6.20;94.10;;;;;;5065558;28;20028;-36
2021/03/12 07:47:39;;;;;;;16.63;2.95;;;6.30;94.20;;;;;;5064727;28;20044;-37
2021/03/12 07:50:34;;;;;;;17.35;3.15;;;6.30;94.20;;;;;;5046017;28;20041;-37
2021/03/12 07:53:02;;;;;;;11.38;3.20;;;6.30;94.10;;;;;;5063965;28;20659;-39
2021/03/12 07:55:36;;;;;;;18.35;3.45;;;6.40;94.10;;;;;;5066256;28;20036;-38
2021/03/12 07:58:06;;;;;;;14.55;3.10;;;6.40;94.00;;;;;;5063410;28;20044;-36
2021/03/12 08:00:51;;;;;;;15.77;3.42;;;6.50;93.90;;;;;;5065680;28;20045;-37
2021/03/12 08:03:40;;;;;;;17.80;4.32;;;6.60;93.90;;;;;;5064638;28;20161;-39
2021/03/12 08:06:18;;;;;;;16.48;2.97;;;6.60;93.70;;;;;;5045347;28;20492;-36
2021/03/12 08:08:48;;;;;;;12.90;2.70;;;6.70;93.70;;;;;;5065145;28;20028;-37
2021/03/12 08:11:21;;;;;;;15.07;3.15;;;6.80;93.60;;;;;;5065856;28;20029;-40
2021/03/12 08:13:47;;;;;;;17.63;3.15;;;7.00;93.50;;;;;;5064660;28;20029;-34
2021/03/12 08:16:13;;;;;;;15.63;3.67;;;7.10;93.30;;;;;;5062255;28;20114;-39
2021/03/12 08:18:39;;;;;;;16.13;3.17;;;7.20;93.20;;;;;;5064524;28;20464;-38
2021/03/12 08:21:33;;;;;;;16.90;3.88;;;7.20;93.10;;;;;;5059155;28;20036;-37
2021/03/12 08:23:59;;;;;;;16.33;3.13;;;7.30;93.20;;;;;;5064034;28;20037;-38
2021/03/12 08:26:50;;;;;;;15.48;3.22;;;7.30;93.20;;;;;;5065492;28;20456;-37
2021/03/12 08:29:42;;;;;;;22.25;3.50;;;7.40;93.10;;;;;;5062771;28;20219;-39
2021/03/12 08:32:44;;;;;;;21.08;3.47;;;7.50;92.80;;;;;;5064396;28;20032;-41
2021/03/12 08:38:04;;;;;;;19.45;3.72;;;7.70;92.60;;;;;;5064924;28;20029;-37
2021/03/12 08:40:33;;;;;;;20.50;3.95;;;7.70;92.30;;;;;;5065318;28;20159;-38
2021/03/12 08:50:17;;;;;;;21.33;3.97;;;7.90;91.80;;;;;;5081410;27;20477;-38
2021/03/12 08:52:46;;;;;;;15.48;3.60;;;8.00;92.00;;;;;;5081772;28;20044;-37
2021/03/12 08:55:13;;;;;;;21.08;3.95;;;8.10;91.90;;;;;;5081586;28;20035;-33
2021/03/12 08:57:38;;;;;;;15.48;3.70;;;8.20;91.60;;;;;;5080572;28;20378;-36
2021/03/12 09:00:06;;;;;;;19.67;3.67;;;8.30;92.00;;;;;;5081682;28;20070;-39
2021/03/12 09:02:34;;;;;;;23.67;5.07;;;8.40;91.60;;;;;;5061256;28;20435;-37
2021/03/12 09:04:59;;;;;;;22.48;4.88;;;8.50;91.10;;;;;;5076084;28;20411;-36
2021/03/12 09:07:25;;;;;;;14.60;3.90;;;8.50;90.90;;;;;;5081260;28;20043;-33
2021/03/12 09:09:51;;;;;;;19.70;4.22;;;8.60;91.10;;;;;;5080928;28;20036;-38
2021/03/12 09:12:16;;;;;;;15.48;3.33;;;8.70;91.20;;;;;;5081306;28;20071;-36
2021/03/12 09:14:42;;;;;;;15.93;4.28;;;8.70;90.90;;;;;;5081293;28;20103;-38
2021/03/12 09:17:07;;;;;;;20.25;4.50;;;8.90;91.00;;;;;;5081198;28;20161;-36
2021/03/12 09:19:33;;;;;;;18.92;4.35;;;8.90;90.60;;;;;;5081121;28;20044;-38
2021/03/12 09:21:58;;;;;;;17.67;4.50;;;8.90;90.30;;;;;;5081568;28;20035;-36
2021/03/12 09:24:24;;;;;;;19.52;4.93;;;8.90;90.30;;;;;;5081136;28;20028;-36
2021/03/12 09:26:49;;;;;;;22.15;4.53;;;8.90;90.50;;;;;;5080650;28;20030;-38
2021/03/12 09:29:15;;;;;;;22.45;5.10;;;8.90;90.50;;;;;;5081044;28;20043;-37
2021/03/12 09:31:41;;;;;;;20.25;4.80;;;8.90;90.40;;;;;;5080237;28;20431;-34
2021/03/12 09:34:09;;;;;;;20.42;4.20;;;8.80;90.40;;;;;;5080315;28;20043;-32
2021/03/12 09:36:43;;;;;;;14.45;5.03;;;8.80;90.60;;;;;;5080562;28;20021;-37
2021/03/12 09:39:21;;;;;;;17.20;4.50;;;8.80;90.60;;;;;;5080414;28;20032;-37
2021/03/12 09:41:57;;;;;;;22.40;5.50;;;8.80;90.80;;;;;;5080092;28;20025;-36
2021/03/12 09:44:24;;;;;;;17.58;5.30;;;8.70;90.60;;;;;;5075874;28;20107;-35
2021/03/12 09:46:59;;;;;;;18.80;5.07;;;8.80;90.60;;;;;;5079857;28;20127;-37
2021/03/12 09:49:29;;;;;;;18.65;4.50;;;8.80;90.50;;;;;;5079276;28;20052;-37
2021/03/12 09:51:59;;;;;;;17.58;5.35;;;8.90;90.50;;;;;;5080698;28;20086;-33
2021/03/12 09:54:26;;;;;;;14.85;4.50;;;8.90;90.30;;;;;;5080272;28;20024;-39
2021/03/12 09:56:54;;;;;;;21.55;4.80;;;9.00;90.40;;;;;;5079993;28;20468;-38
2021/03/12 09:59:41;;;;;;;14.68;4.18;;;9.00;90.30;;;;;;5080645;28;20073;-38
2021/03/12 10:02:08;;;;;;;16.33;3.65;;;9.00;90.30;;;;;;5066302;28;20080;-34
2021/03/12 10:04:37;;;;;;;14.63;4.18;;;9.10;90.00;;;;;;5047391;28;20067;-35
2021/03/12 10:07:10;;;;;;;18.50;4.75;;;9.10;89.30;;;;;;5060937;28;20642;-36
2021/03/12 10:09:42;;;;;;;;;;;9.10;89.10;;;;;;5067362;28;20072;-38
2021/03/12 10:12:19;;;;;;;18.27;4.55;;;9.10;89.30;;;;;;5067098;28;20364;-41
2021/03/12 10:14:53;;;;;;;18.95;4.40;;;9.10;89.80;;;;;;5066676;28;20154;-37
2021/03/12 10:17:22;;;;;;;17.33;3.90;;;9.10;90.10;;;;;;5066357;28;20169;-36
2021/03/12 10:19:53;;;;;;;18.05;3.88;;;9.10;90.10;;;;;;5065919;28;20017;-36
2021/03/12 10:22:32;;;;;;;18.98;4.00;;;9.10;90.40;;;;;;5065860;28;20464;-33
2021/03/12 10:25:09;;;;;;;15.23;4.13;;;9.10;90.20;;;;;;5067641;28;20092;-36
2021/03/12 10:27:37;;;;;;;19.90;4.00;;;9.10;90.10;;;;;;5065641;28;20385;-37
2021/03/12 10:30:15;;;;;;;19.20;4.13;;;9.10;90.70;;;;;;5066013;28;20064;-42
2021/03/12 10:32:46;;;;;;;18.25;4.03;;;9.00;91.20;;;;;;5066462;28;20104;-35
2021/03/12 10:35:28;;;;;;;19.55;3.47;;;8.80;91.50;;;;;;5066275;28;20153;-34
2021/03/12 10:37:58;;;;;;;17.17;3.42;;;8.70;91.90;;;;;;5066492;28;20016;-37
2021/03/12 10:40:25;;;;;;;17.95;3.70;;;8.50;92.40;;;;;;5066277;28;20024;-35
2021/03/12 10:42:51;;;;;;;24.08;3.97;;;8.40;92.80;;;;;;5065014;28;20039;-36
2021/03/12 10:45:24;;;;;;;17.42;4.35;;;8.30;93.30;;;;;;5065238;28;20028;-37
2021/03/12 10:47:57;;;;;;;18.20;3.95;;;8.20;93.10;;;;;;5066138;28;20032;-35
2021/03/12 10:50:23;;;;;;;17.88;3.50;;;8.20;93.40;;;;;;5065126;28;20224;-38
2021/03/12 10:52:49;;;;;;;19.17;3.88;;;8.20;93.20;;;;;;5065817;28;20127;-36
2021/03/12 10:55:15;;;;;;;20.20;3.92;;;8.30;93.30;;;;;;5066091;28;20124;-34
2021/03/12 10:57:46;;;;;;;18.13;4.20;;;8.30;93.00;;;;;;5065276;28;20457;-38
2021/03/12 11:00:18;;;;;;;18.67;5.43;;;8.40;92.80;;;;;;5062967;28;20078;-38
2021/03/12 11:02:44;;;;;;;17.02;3.92;;;8.40;93.40;;;;;;5065636;28;20468;-38
2021/03/12 11:05:12;;;;;;;19.83;3.72;;;8.40;93.70;;;;;;5065364;28;20563;-36
2021/03/12 11:07:38;;;;;;;12.55;3.80;;;8.30;94.10;;;;;;5065204;28;20091;-35
2021/03/12 11:10:05;;;;;;;14.45;3.88;;;8.30;93.90;;;;;;5065670;28;20097;-34
2021/03/12 11:12:43;;;;;;;12.73;3.67;;;8.20;94.20;;;;;;5061475;28;20585;-35
2021/03/12 11:15:11;;;;;;;14.82;4.10;;;8.20;94.20;;;;;;5064899;28;20513;-37
2021/03/12 11:17:37;;;;;;;21.23;4.40;;;8.10;94.70;;;;;;5064980;28;20492;-39
2021/03/12 11:20:06;;;;;;;18.27;4.10;;;8.00;95.00;;;;;;5065374;28;21314;-38
2021/03/12 11:22:33;;;;;;;25.23;4.18;;;8.00;95.30;;;;;;5064973;28;20044;-36
2021/03/12 11:25:04;;;;;;;16.67;4.50;;;8.00;95.30;;;;;;5065225;28;20036;-37
2021/03/12 11:27:32;;;;;;;14.27;3.85;;;8.00;94.80;;;;;;5065640;28;20112;-37
2021/03/12 11:29:58;;;;;;;20.73;4.93;;;8.00;94.90;;;;;;5058425;28;20041;-37
2021/03/12 11:32:25;;;;;;;17.58;4.25;;;8.10;94.70;;;;;;5063800;28;20033;-35
2021/03/12 11:34:51;;;;;;;17.15;3.60;;;8.10;94.60;;;;;;5065236;28;20062;-37
2021/03/12 11:37:16;;;;;;;16.00;3.60;;;8.10;94.60;;;;;;5063773;28;20054;-36
2021/03/12 11:39:42;;;;;;;21.48;5.45;;;8.20;94.60;;;;;;5062544;28;20044;-38
2021/03/12 11:42:08;;;;;;;24.77;5.07;;;8.30;94.30;;;;;;5064875;28;20039;-32
2021/03/12 11:44:33;;;;;;;12.75;3.85;;;8.50;94.30;;;;;;5064857;28;20450;-38
2021/03/12 11:46:59;;;;;;;14.80;3.95;;;8.60;93.80;;;;;;5064622;28;20051;-37
2021/03/12 11:49:24;;;;;;;13.10;4.45;;;8.70;93.50;;;;;;5064204;28;20068;-32
2021/03/12 11:51:52;;;;;;;20.63;4.32;;;8.80;93.50;;;;;;5065037;28;20058;-35
2021/03/12 11:54:19;;;;;;;15.50;4.07;;;8.90;93.10;;;;;;5063181;28;21169;-39
2021/03/12 11:56:45;;;;;;;15.57;4.10;;;8.90;92.90;;;;;;5064870;28;20025;-37
2021/03/12 11:59:11;;;;;;;15.43;4.10;;;9.00;92.30;;;;;;5062827;28;20052;-38
2021/03/12 12:01:37;;;;;;;14.20;3.78;;;9.10;92.10;;;;;;5062903;28;20025;-36
2021/03/12 12:04:03;;;;;;;17.05;3.95;;;9.10;91.70;;;;;;5064951;28;20028;-38
2021/03/12 12:06:29;;;;;;;14.55;3.72;;;9.10;91.90;;;;;;5064266;28;20029;-37
2021/03/12 12:08:54;;;;;;;14.55;3.83;;;9.20;92.00;;;;;;5064717;28;20069;-36
2021/03/12 12:11:20;;;;;;;19.15;4.70;;;9.30;91.40;;;;;;5060888;28;20085;-33
2021/03/12 12:13:46;;;;;;;13.30;3.88;;;9.40;91.30;;;;;;5063051;28;20068;-39
2021/03/12 12:16:11;;;;;;;14.43;3.88;;;9.50;91.10;;;;;;5061759;28;20029;-36
2021/03/12 12:18:37;;;;;;;14.98;4.13;;;9.70;90.10;;;;;;5063854;28;20495;-34
2021/03/12 12:21:03;;;;;;;17.08;4.03;;;9.80;90.00;;;;;;5063153;28;20074;-39
2021/03/12 12:23:28;;;;;;;15.23;4.05;;;10.00;89.90;;;;;;5063674;28;20066;-38
2021/03/12 12:25:57;;;;;;;21.48;3.45;;;10.10;88.40;;;;;;5064100;28;20024;-35
2021/03/12 12:28:23;;;;;;;13.38;3.13;;;10.10;87.60;;;;;;5062287;28;20050;-37
2021/03/12 12:30:49;;;;;;;7.70;2.55;;;10.00;87.10;;;;;;5064056;28;20024;-35
2021/03/12 12:33:14;;;;;;;11.65;3.50;;;9.90;87.90;;;;;;5064773;28;20017;-36
2021/03/12 12:35:40;;;;;;;13.38;2.95;;;9.90;88.70;;;;;;5063873;28;20032;-35
2021/03/12 12:38:06;;;;;;;15.85;3.80;;;9.80;87.50;;;;;;5064173;28;20025;-36
2021/03/12 12:40:32;;;;;;;13.52;2.80;;;9.80;88.30;;;;;;5064051;28;20207;-35
2021/03/12 12:42:57;;;;;;;10.40;2.78;;;9.70;88.20;;;;;;5064395;28;20410;-38
2021/03/12 12:45:23;;;;;;;10.95;3.13;;;9.70;88.30;;;;;;5064185;28;20449;-33
2021/03/12 12:47:48;;;;;;;13.45;3.03;;;9.70;87.90;;;;;;5063788;28;20028;-35
2021/03/12 12:50:14;;;;;;;16.73;3.50;;;9.60;89.30;;;;;;5063682;28;20059;-31
2021/03/12 12:52:43;;;;;;;14.85;2.85;;;9.60;90.20;;;;;;5063598;28;20109;-33
2021/03/12 12:55:09;;;;;;;10.70;3.25;;;9.40;90.80;;;;;;5060746;28;20529;-35
2021/03/12 12:57:36;;;;;;;12.52;2.67;;;9.40;91.10;;;;;;5062783;28;20028;-39
2021/03/12 13:00:07;;;;;;;9.63;2.85;;;9.40;91.20;;;;;;5064058;28;20506;-36
2021/03/12 13:02:33;;;;;;;8.68;2.65;;;9.40;91.30;;;;;;5063328;28;20024;-36
2021/03/12 13:04:58;;;;;;;16.27;3.30;;;9.40;91.20;;;;;;5063993;28;20028;-39